sensor_id;sensor_type;location;lat;lon;timestamp;P1;durP1;ratioP1;P2;durP2;ratioP2
47856;SDS011;33618;49.972;8.242;2024-01-30T00:00:32;16.58;;;9.82;;
47856;SDS011;33618;49.972;8.242;2024-01-30T00:02:59;18.88;;;10.30;;
47856;SDS011;33618;49.972;8.242;2024-01-30T00:05:26;19.55;;;9.82;;
47856;SDS011;33618;49.972;8.242;2024-01-30T00:07:53;20.17;;;10.23;;
47856;SDS011;33618;49.972;8.242;2024-01-30T00:10:20;19.38;;;10.50;;
47856;SDS011;33618;49.972;8.242;2024-01-30T00:12:46;16.08;;;10.38;;
47856;SDS011;33618;49.972;8.242;2024-01-30T00:15:13;17.70;;;10.88;;
47856;SDS011;33618;49.972;8.242;2024-01-30T00:17:41;17.55;;;9.60;;
47856;SDS011;33618;49.972;8.242;2024-01-30T00:20:08;18.95;;;9.43;;
47856;SDS011;33618;49.972;8.242;2024-01-30T00:22:36;21.88;;;10.77;;
47856;SDS011;33618;49.972;8.242;2024-01-30T00:25:03;18.95;;;9.80;;
47856;SDS011;33618;49.972;8.242;2024-01-30T00:27:30;15.13;;;7.93;;
47856;SDS011;33618;49.972;8.242;2024-01-30T00:29:57;21.67;;;9.40;;
47856;SDS011;33618;49.972;8.242;2024-01-30T00:32:24;22.73;;;9.98;;
47856;SDS011;33618;49.972;8.242;2024-01-30T00:34:50;22.63;;;10.85;;
47856;SDS011;33618;49.972;8.242;2024-01-30T00:37:17;18.75;;;9.52;;
47856;SDS011;33618;49.972;8.242;2024-01-30T00:39:44;22.73;;;9.23;;
47856;SDS011;33618;49.972;8.242;2024-01-30T00:42:11;18.75;;;10.02;;
47856;SDS011;33618;49.972;8.242;2024-01-30T00:44:38;18.08;;;9.88;;
47856;SDS011;33618;49.972;8.242;2024-01-30T00:47:05;15.73;;;7.88;;
47856;SDS011;33618;49.972;8.242;2024-01-30T00:49:32;16.85;;;9.70;;
47856;SDS011;33618;49.972;8.242;2024-01-30T00:51:59;21.50;;;10.13;;
47856;SDS011;33618;49.972;8.242;2024-01-30T00:54:29;20.95;;;10.68;;
47856;SDS011;33618;49.972;8.242;2024-01-30T00:56:56;16.38;;;9.35;;
47856;SDS011;33618;49.972;8.242;2024-01-30T00:59:23;15.85;;;10.32;;
47856;SDS011;33618;49.972;8.242;2024-01-30T01:01:50;19.08;;;10.82;;
47856;SDS011;33618;49.972;8.242;2024-01-30T01:04:17;19.02;;;8.55;;
47856;SDS011;33618;49.972;8.242;2024-01-30T01:06:44;15.10;;;9.45;;
47856;SDS011;33618;49.972;8.242;2024-01-30T01:09:11;15.43;;;9.85;;
47856;SDS011;33618;49.972;8.242;2024-01-30T01:11:38;23.00;;;8.48;;
47856;SDS011;33618;49.972;8.242;2024-01-30T01:14:05;17.40;;;10.32;;
47856;SDS011;33618;49.972;8.242;2024-01-30T01:16:33;20.80;;;10.05;;
47856;SDS011;33618;49.972;8.242;2024-01-30T01:19:00;17.13;;;9.00;;
47856;SDS011;33618;49.972;8.242;2024-01-30T01:21:27;19.48;;;9.65;;
47856;SDS011;33618;49.972;8.242;2024-01-30T01:23:54;19.15;;;9.73;;
47856;SDS011;33618;49.972;8.242;2024-01-30T01:26:21;15.57;;;8.10;;
47856;SDS011;33618;49.972;8.242;2024-01-30T01:28:48;18.38;;;9.68;;
47856;SDS011;33618;49.972;8.242;2024-01-30T01:31:14;17.20;;;9.20;;
47856;SDS011;33618;49.972;8.242;2024-01-30T01:33:42;18.15;;;9.20;;
47856;SDS011;33618;49.972;8.242;2024-01-30T01:36:09;13.38;;;7.50;;
47856;SDS011;33618;49.972;8.242;2024-01-30T01:38:36;14.15;;;9.35;;
47856;SDS011;33618;49.972;8.242;2024-01-30T01:41:03;22.20;;;9.18;;
47856;SDS011;33618;49.972;8.242;2024-01-30T01:43:30;23.15;;;13.32;;
47856;SDS011;33618;49.972;8.242;2024-01-30T01:45:57;28.63;;;10.98;;
47856;SDS011;33618;49.972;8.242;2024-01-30T01:48:24;23.92;;;10.93;;
47856;SDS011;33618;49.972;8.242;2024-01-30T01:50:51;17.85;;;9.07;;
47856;SDS011;33618;49.972;8.242;2024-01-30T01:53:19;19.20;;;10.57;;
47856;SDS011;33618;49.972;8.242;2024-01-30T01:55:46;22.23;;;10.48;;
47856;SDS011;33618;49.972;8.242;2024-01-30T01:58:14;17.48;;;9.15;;
47856;SDS011;33618;49.972;8.242;2024-01-30T02:00:42;14.63;;;8.13;;
47856;SDS011;33618;49.972;8.242;2024-01-30T02:03:10;20.95;;;10.15;;
47856;SDS011;33618;49.972;8.242;2024-01-30T02:05:38;19.90;;;9.23;;
47856;SDS011;33618;49.972;8.242;2024-01-30T02:08:06;26.92;;;9.80;;
47856;SDS011;33618;49.972;8.242;2024-01-30T02:10:33;20.48;;;8.07;;
47856;SDS011;33618;49.972;8.242;2024-01-30T02:13:00;19.70;;;9.35;;
47856;SDS011;33618;49.972;8.242;2024-01-30T02:15:28;20.02;;;9.60;;
47856;SDS011;33618;49.972;8.242;2024-01-30T02:17:55;22.63;;;8.80;;
47856;SDS011;33618;49.972;8.242;2024-01-30T02:20:23;17.50;;;10.38;;
47856;SDS011;33618;49.972;8.242;2024-01-30T02:23:15;22.25;;;10.02;;
47856;SDS011;33618;49.972;8.242;2024-01-30T02:26:06;20.38;;;9.00;;
47856;SDS011;33618;49.972;8.242;2024-01-30T02:28:33;22.33;;;9.18;;
47856;SDS011;33618;49.972;8.242;2024-01-30T02:31:00;16.27;;;9.77;;
47856;SDS011;33618;49.972;8.242;2024-01-30T02:33:31;23.20;;;9.63;;
47856;SDS011;33618;49.972;8.242;2024-01-30T02:35:58;23.08;;;10.60;;
47856;SDS011;33618;49.972;8.242;2024-01-30T02:38:25;18.45;;;10.55;;
47856;SDS011;33618;49.972;8.242;2024-01-30T02:40:53;20.88;;;9.95;;
47856;SDS011;33618;49.972;8.242;2024-01-30T02:43:19;19.15;;;10.55;;
47856;SDS011;33618;49.972;8.242;2024-01-30T02:45:46;18.58;;;9.20;;
47856;SDS011;33618;49.972;8.242;2024-01-30T02:48:13;14.98;;;8.50;;
47856;SDS011;33618;49.972;8.242;2024-01-30T02:50:40;20.30;;;10.50;;
47856;SDS011;33618;49.972;8.242;2024-01-30T02:53:07;19.40;;;9.48;;
47856;SDS011;33618;49.972;8.242;2024-01-30T02:55:34;15.32;;;8.27;;
47856;SDS011;33618;49.972;8.242;2024-01-30T02:58:01;19.00;;;9.88;;
47856;SDS011;33618;49.972;8.242;2024-01-30T03:00:28;19.40;;;9.45;;
47856;SDS011;33618;49.972;8.242;2024-01-30T03:02:55;16.98;;;10.57;;
47856;SDS011;33618;49.972;8.242;2024-01-30T03:05:21;15.18;;;8.30;;
47856;SDS011;33618;49.972;8.242;2024-01-30T03:07:49;17.20;;;9.35;;
47856;SDS011;33618;49.972;8.242;2024-01-30T03:10:16;20.35;;;9.43;;
47856;SDS011;33618;49.972;8.242;2024-01-30T03:12:43;18.38;;;9.45;;
47856;SDS011;33618;49.972;8.242;2024-01-30T03:15:10;18.90;;;9.48;;
47856;SDS011;33618;49.972;8.242;2024-01-30T03:17:39;17.95;;;10.13;;
47856;SDS011;33618;49.972;8.242;2024-01-30T03:20:06;21.00;;;10.30;;
47856;SDS011;33618;49.972;8.242;2024-01-30T03:22:34;16.58;;;9.07;;
47856;SDS011;33618;49.972;8.242;2024-01-30T03:25:01;19.88;;;9.38;;
47856;SDS011;33618;49.972;8.242;2024-01-30T03:27:29;22.83;;;11.05;;
47856;SDS011;33618;49.972;8.242;2024-01-30T03:29:56;19.98;;;10.05;;
47856;SDS011;33618;49.972;8.242;2024-01-30T03:32:23;17.70;;;8.32;;
47856;SDS011;33618;49.972;8.242;2024-01-30T03:34:50;18.80;;;11.00;;
47856;SDS011;33618;49.972;8.242;2024-01-30T03:37:17;22.80;;;8.50;;
47856;SDS011;33618;49.972;8.242;2024-01-30T03:39:45;21.98;;;8.55;;
47856;SDS011;33618;49.972;8.242;2024-01-30T03:42:12;15.88;;;9.25;;
47856;SDS011;33618;49.972;8.242;2024-01-30T03:44:40;17.52;;;8.63;;
47856;SDS011;33618;49.972;8.242;2024-01-30T03:47:07;15.45;;;8.70;;
47856;SDS011;33618;49.972;8.242;2024-01-30T03:49:34;20.25;;;7.88;;
47856;SDS011;33618;49.972;8.242;2024-01-30T03:52:02;16.77;;;8.13;;
47856;SDS011;33618;49.972;8.242;2024-01-30T03:54:31;14.82;;;9.25;;
47856;SDS011;33618;49.972;8.242;2024-01-30T03:56:58;16.52;;;9.45;;
47856;SDS011;33618;49.972;8.242;2024-01-30T03:59:25;19.55;;;8.90;;
47856;SDS011;33618;49.972;8.242;2024-01-30T04:01:53;17.33;;;8.38;;
47856;SDS011;33618;49.972;8.242;2024-01-30T04:04:20;14.23;;;8.43;;
47856;SDS011;33618;49.972;8.242;2024-01-30T04:06:48;13.32;;;8.13;;
47856;SDS011;33618;49.972;8.242;2024-01-30T04:09:15;15.38;;;8.82;;
47856;SDS011;33618;49.972;8.242;2024-01-30T04:11:42;20.40;;;8.52;;
47856;SDS011;33618;49.972;8.242;2024-01-30T04:14:10;20.77;;;8.93;;
47856;SDS011;33618;49.972;8.242;2024-01-30T04:16:37;16.75;;;8.95;;
47856;SDS011;33618;49.972;8.242;2024-01-30T04:19:05;18.67;;;7.97;;
47856;SDS011;33618;49.972;8.242;2024-01-30T04:21:32;12.63;;;8.10;;
47856;SDS011;33618;49.972;8.242;2024-01-30T04:23:59;20.15;;;10.43;;
47856;SDS011;33618;49.972;8.242;2024-01-30T04:26:26;17.40;;;9.85;;
47856;SDS011;33618;49.972;8.242;2024-01-30T04:28:54;19.38;;;9.05;;
47856;SDS011;33618;49.972;8.242;2024-01-30T04:31:21;19.83;;;9.38;;
47856;SDS011;33618;49.972;8.242;2024-01-30T04:33:48;17.23;;;8.63;;
47856;SDS011;33618;49.972;8.242;2024-01-30T04:36:16;15.50;;;7.65;;
47856;SDS011;33618;49.972;8.242;2024-01-30T04:38:43;14.57;;;7.55;;
47856;SDS011;33618;49.972;8.242;2024-01-30T04:41:11;15.95;;;7.70;;
47856;SDS011;33618;49.972;8.242;2024-01-30T04:43:38;12.05;;;7.28;;
47856;SDS011;33618;49.972;8.242;2024-01-30T04:46:05;22.30;;;10.55;;
47856;SDS011;33618;49.972;8.242;2024-01-30T04:48:33;16.98;;;8.65;;
47856;SDS011;33618;49.972;8.242;2024-01-30T04:51:00;16.45;;;8.65;;
47856;SDS011;33618;49.972;8.242;2024-01-30T04:53:30;15.73;;;8.40;;
47856;SDS011;33618;49.972;8.242;2024-01-30T04:55:57;16.77;;;9.25;;
47856;SDS011;33618;49.972;8.242;2024-01-30T04:58:24;19.10;;;10.93;;
47856;SDS011;33618;49.972;8.242;2024-01-30T05:00:52;22.55;;;10.80;;
47856;SDS011;33618;49.972;8.242;2024-01-30T05:03:19;20.35;;;9.25;;
47856;SDS011;33618;49.972;8.242;2024-01-30T05:05:49;16.25;;;8.25;;
47856;SDS011;33618;49.972;8.242;2024-01-30T05:08:16;17.00;;;8.93;;
47856;SDS011;33618;49.972;8.242;2024-01-30T05:10:44;15.43;;;8.63;;
47856;SDS011;33618;49.972;8.242;2024-01-30T05:13:12;12.98;;;7.70;;
47856;SDS011;33618;49.972;8.242;2024-01-30T05:15:40;16.23;;;8.52;;
47856;SDS011;33618;49.972;8.242;2024-01-30T05:18:07;14.90;;;7.85;;
47856;SDS011;33618;49.972;8.242;2024-01-30T05:20:35;18.13;;;9.73;;
47856;SDS011;33618;49.972;8.242;2024-01-30T05:23:03;24.17;;;11.35;;
47856;SDS011;33618;49.972;8.242;2024-01-30T05:25:30;27.02;;;10.75;;
47856;SDS011;33618;49.972;8.242;2024-01-30T05:27:57;19.25;;;9.88;;
47856;SDS011;33618;49.972;8.242;2024-01-30T05:30:25;20.63;;;9.77;;
47856;SDS011;33618;49.972;8.242;2024-01-30T05:32:52;14.07;;;8.25;;
47856;SDS011;33618;49.972;8.242;2024-01-30T05:35:20;23.02;;;10.32;;
47856;SDS011;33618;49.972;8.242;2024-01-30T05:37:50;19.13;;;10.00;;
47856;SDS011;33618;49.972;8.242;2024-01-30T05:40:17;24.88;;;8.20;;
47856;SDS011;33618;49.972;8.242;2024-01-30T05:42:45;19.63;;;10.25;;
47856;SDS011;33618;49.972;8.242;2024-01-30T05:45:12;15.25;;;8.57;;
47856;SDS011;33618;49.972;8.242;2024-01-30T05:47:39;17.27;;;8.85;;
47856;SDS011;33618;49.972;8.242;2024-01-30T05:50:07;17.77;;;8.90;;
47856;SDS011;33618;49.972;8.242;2024-01-30T05:52:34;19.48;;;8.63;;
47856;SDS011;33618;49.972;8.242;2024-01-30T05:55:02;19.75;;;8.75;;
47856;SDS011;33618;49.972;8.242;2024-01-30T05:57:29;15.77;;;9.00;;
47856;SDS011;33618;49.972;8.242;2024-01-30T05:59:57;18.35;;;10.38;;
47856;SDS011;33618;49.972;8.242;2024-01-30T06:02:24;18.67;;;9.57;;
47856;SDS011;33618;49.972;8.242;2024-01-30T06:04:51;16.77;;;10.18;;
47856;SDS011;33618;49.972;8.242;2024-01-30T06:07:18;22.13;;;10.70;;
47856;SDS011;33618;49.972;8.242;2024-01-30T06:09:46;20.67;;;8.95;;
47856;SDS011;33618;49.972;8.242;2024-01-30T06:12:13;19.83;;;8.65;;
47856;SDS011;33618;49.972;8.242;2024-01-30T06:14:40;22.88;;;9.18;;
47856;SDS011;33618;49.972;8.242;2024-01-30T06:17:12;17.25;;;8.02;;
47856;SDS011;33618;49.972;8.242;2024-01-30T06:19:40;17.52;;;9.05;;
47856;SDS011;33618;49.972;8.242;2024-01-30T06:22:07;20.40;;;8.35;;
47856;SDS011;33618;49.972;8.242;2024-01-30T06:24:35;14.85;;;8.13;;
47856;SDS011;33618;49.972;8.242;2024-01-30T06:27:02;20.00;;;8.48;;
47856;SDS011;33618;49.972;8.242;2024-01-30T06:29:29;15.85;;;8.77;;
47856;SDS011;33618;49.972;8.242;2024-01-30T06:31:56;17.35;;;9.27;;
47856;SDS011;33618;49.972;8.242;2024-01-30T06:34:23;21.55;;;10.15;;
47856;SDS011;33618;49.972;8.242;2024-01-30T06:36:52;17.30;;;9.02;;
47856;SDS011;33618;49.972;8.242;2024-01-30T06:39:20;14.90;;;8.77;;
47856;SDS011;33618;49.972;8.242;2024-01-30T06:41:47;14.48;;;7.88;;
47856;SDS011;33618;49.972;8.242;2024-01-30T06:44:14;15.38;;;7.60;;
47856;SDS011;33618;49.972;8.242;2024-01-30T06:46:42;13.18;;;7.75;;
47856;SDS011;33618;49.972;8.242;2024-01-30T06:49:09;17.88;;;9.65;;
47856;SDS011;33618;49.972;8.242;2024-01-30T06:51:36;18.35;;;9.20;;
47856;SDS011;33618;49.972;8.242;2024-01-30T06:54:04;15.00;;;8.45;;
47856;SDS011;33618;49.972;8.242;2024-01-30T06:56:31;19.83;;;8.60;;
47856;SDS011;33618;49.972;8.242;2024-01-30T06:58:59;19.40;;;9.23;;
47856;SDS011;33618;49.972;8.242;2024-01-30T07:01:29;15.63;;;8.85;;
47856;SDS011;33618;49.972;8.242;2024-01-30T07:03:57;18.38;;;10.15;;
47856;SDS011;33618;49.972;8.242;2024-01-30T07:06:24;19.80;;;10.55;;
47856;SDS011;33618;49.972;8.242;2024-01-30T07:08:52;20.70;;;9.77;;
47856;SDS011;33618;49.972;8.242;2024-01-30T07:11:19;19.63;;;8.80;;
47856;SDS011;33618;49.972;8.242;2024-01-30T07:13:48;15.20;;;8.63;;
47856;SDS011;33618;49.972;8.242;2024-01-30T07:16:15;16.55;;;9.73;;
47856;SDS011;33618;49.972;8.242;2024-01-30T07:18:43;20.75;;;9.18;;
47856;SDS011;33618;49.972;8.242;2024-01-30T07:21:11;17.55;;;9.65;;
47856;SDS011;33618;49.972;8.242;2024-01-30T07:23:38;19.40;;;10.15;;
47856;SDS011;33618;49.972;8.242;2024-01-30T07:26:07;18.75;;;10.10;;
47856;SDS011;33618;49.972;8.242;2024-01-30T07:28:34;16.13;;;9.60;;
47856;SDS011;33618;49.972;8.242;2024-01-30T07:31:02;22.60;;;10.45;;
47856;SDS011;33618;49.972;8.242;2024-01-30T07:33:29;21.42;;;10.07;;
47856;SDS011;33618;49.972;8.242;2024-01-30T07:35:56;24.88;;;11.93;;
47856;SDS011;33618;49.972;8.242;2024-01-30T07:38:24;19.27;;;9.40;;
47856;SDS011;33618;49.972;8.242;2024-01-30T07:40:51;23.63;;;11.07;;
47856;SDS011;33618;49.972;8.242;2024-01-30T07:43:18;21.40;;;9.95;;
47856;SDS011;33618;49.972;8.242;2024-01-30T07:45:46;19.45;;;9.00;;
47856;SDS011;33618;49.972;8.242;2024-01-30T07:48:14;22.42;;;10.77;;
47856;SDS011;33618;49.972;8.242;2024-01-30T07:51:05;25.05;;;11.57;;
47856;SDS011;33618;49.972;8.242;2024-01-30T07:53:59;24.15;;;10.88;;
47856;SDS011;33618;49.972;8.242;2024-01-30T07:56:26;16.65;;;8.98;;
47856;SDS011;33618;49.972;8.242;2024-01-30T07:58:54;16.73;;;10.38;;
47856;SDS011;33618;49.972;8.242;2024-01-30T08:01:21;26.17;;;11.15;;
47856;SDS011;33618;49.972;8.242;2024-01-30T08:03:48;21.05;;;11.88;;
47856;SDS011;33618;49.972;8.242;2024-01-30T08:06:16;18.58;;;9.40;;
47856;SDS011;33618;49.972;8.242;2024-01-30T08:08:43;26.45;;;12.57;;
47856;SDS011;33618;49.972;8.242;2024-01-30T08:11:11;20.08;;;11.45;;
47856;SDS011;33618;49.972;8.242;2024-01-30T08:13:39;20.92;;;10.80;;
47856;SDS011;33618;49.972;8.242;2024-01-30T08:16:06;33.65;;;13.55;;
47856;SDS011;33618;49.972;8.242;2024-01-30T08:18:39;25.30;;;12.60;;
47856;SDS011;33618;49.972;8.242;2024-01-30T08:21:07;27.48;;;13.23;;
47856;SDS011;33618;49.972;8.242;2024-01-30T08:23:35;23.67;;;13.10;;
47856;SDS011;33618;49.972;8.242;2024-01-30T08:26:02;29.05;;;12.93;;
47856;SDS011;33618;49.972;8.242;2024-01-30T08:28:30;23.85;;;14.35;;
47856;SDS011;33618;49.972;8.242;2024-01-30T08:30:57;25.02;;;12.13;;
47856;SDS011;33618;49.972;8.242;2024-01-30T08:33:24;27.92;;;16.75;;
47856;SDS011;33618;49.972;8.242;2024-01-30T08:35:52;25.50;;;15.45;;
47856;SDS011;33618;49.972;8.242;2024-01-30T08:38:19;31.88;;;12.75;;
47856;SDS011;33618;49.972;8.242;2024-01-30T08:40:46;28.92;;;14.88;;
47856;SDS011;33618;49.972;8.242;2024-01-30T08:43:13;24.17;;;13.93;;
47856;SDS011;33618;49.972;8.242;2024-01-30T08:45:41;26.20;;;12.00;;
47856;SDS011;33618;49.972;8.242;2024-01-30T08:48:09;25.98;;;13.55;;
47856;SDS011;33618;49.972;8.242;2024-01-30T08:50:36;22.90;;;14.00;;
47856;SDS011;33618;49.972;8.242;2024-01-30T08:53:04;30.23;;;14.05;;
47856;SDS011;33618;49.972;8.242;2024-01-30T08:55:31;26.23;;;13.15;;
47856;SDS011;33618;49.972;8.242;2024-01-30T08:57:58;23.38;;;12.85;;
47856;SDS011;33618;49.972;8.242;2024-01-30T09:00:25;26.35;;;12.27;;
47856;SDS011;33618;49.972;8.242;2024-01-30T09:02:53;25.80;;;13.55;;
47856;SDS011;33618;49.972;8.242;2024-01-30T09:05:20;28.48;;;13.18;;
47856;SDS011;33618;49.972;8.242;2024-01-30T09:07:48;26.50;;;12.77;;
47856;SDS011;33618;49.972;8.242;2024-01-30T09:10:15;27.33;;;14.20;;
47856;SDS011;33618;49.972;8.242;2024-01-30T09:12:46;23.65;;;12.93;;
47856;SDS011;33618;49.972;8.242;2024-01-30T09:15:14;24.80;;;13.57;;
47856;SDS011;33618;49.972;8.242;2024-01-30T09:17:41;32.80;;;14.43;;
47856;SDS011;33618;49.972;8.242;2024-01-30T09:20:08;23.05;;;13.23;;
47856;SDS011;33618;49.972;8.242;2024-01-30T09:22:36;25.23;;;12.88;;
47856;SDS011;33618;49.972;8.242;2024-01-30T09:25:03;21.73;;;12.57;;
47856;SDS011;33618;49.972;8.242;2024-01-30T09:27:30;23.50;;;12.50;;
47856;SDS011;33618;49.972;8.242;2024-01-30T09:29:58;21.80;;;12.60;;
47856;SDS011;33618;49.972;8.242;2024-01-30T09:32:25;26.73;;;13.93;;
47856;SDS011;33618;49.972;8.242;2024-01-30T09:34:53;26.85;;;13.30;;
47856;SDS011;33618;49.972;8.242;2024-01-30T09:37:20;28.50;;;13.68;;
47856;SDS011;33618;49.972;8.242;2024-01-30T09:39:49;27.75;;;13.18;;
47856;SDS011;33618;49.972;8.242;2024-01-30T09:42:36;22.10;;;12.38;;
47856;SDS011;33618;49.972;8.242;2024-01-30T09:45:04;23.05;;;12.48;;
47856;SDS011;33618;49.972;8.242;2024-01-30T09:47:41;22.60;;;13.05;;
47856;SDS011;33618;49.972;8.242;2024-01-30T09:50:09;22.98;;;13.90;;
47856;SDS011;33618;49.972;8.242;2024-01-30T09:52:37;24.70;;;13.55;;
47856;SDS011;33618;49.972;8.242;2024-01-30T09:55:05;25.10;;;13.82;;
47856;SDS011;33618;49.972;8.242;2024-01-30T09:57:33;21.35;;;12.77;;
47856;SDS011;33618;49.972;8.242;2024-01-30T10:00:01;22.50;;;11.48;;
47856;SDS011;33618;49.972;8.242;2024-01-30T10:02:33;25.30;;;12.77;;
47856;SDS011;33618;49.972;8.242;2024-01-30T10:05:00;25.02;;;13.25;;
47856;SDS011;33618;49.972;8.242;2024-01-30T10:07:28;20.33;;;12.60;;
47856;SDS011;33618;49.972;8.242;2024-01-30T10:09:57;24.70;;;13.90;;
47856;SDS011;33618;49.972;8.242;2024-01-30T10:12:27;21.88;;;13.60;;
47856;SDS011;33618;49.972;8.242;2024-01-30T10:14:56;30.13;;;13.00;;
47856;SDS011;33618;49.972;8.242;2024-01-30T10:17:24;27.42;;;14.43;;
47856;SDS011;33618;49.972;8.242;2024-01-30T10:19:59;23.80;;;13.93;;
47856;SDS011;33618;49.972;8.242;2024-01-30T10:22:27;22.52;;;13.02;;
47856;SDS011;33618;49.972;8.242;2024-01-30T10:24:55;22.65;;;13.55;;
47856;SDS011;33618;49.972;8.242;2024-01-30T10:27:25;27.67;;;14.57;;
47856;SDS011;33618;49.972;8.242;2024-01-30T10:29:53;28.52;;;14.23;;
47856;SDS011;33618;49.972;8.242;2024-01-30T10:32:21;23.13;;;13.35;;
47856;SDS011;33618;49.972;8.242;2024-01-30T10:34:48;23.67;;;13.93;;
47856;SDS011;33618;49.972;8.242;2024-01-30T10:37:15;21.40;;;12.95;;
47856;SDS011;33618;49.972;8.242;2024-01-30T10:39:43;30.05;;;14.07;;
47856;SDS011;33618;49.972;8.242;2024-01-30T10:42:12;23.02;;;13.48;;
47856;SDS011;33618;49.972;8.242;2024-01-30T10:47:26;26.93;;;13.60;;
47856;SDS011;33618;49.972;8.242;2024-01-30T10:49:54;25.48;;;13.48;;
47856;SDS011;33618;49.972;8.242;2024-01-30T10:52:22;25.83;;;14.20;;
47856;SDS011;33618;49.972;8.242;2024-01-30T10:54:53;24.65;;;13.77;;
47856;SDS011;33618;49.972;8.242;2024-01-30T10:57:22;25.25;;;13.32;;
47856;SDS011;33618;49.972;8.242;2024-01-30T11:00:00;22.85;;;13.55;;
47856;SDS011;33618;49.972;8.242;2024-01-30T11:02:28;25.52;;;13.50;;
47856;SDS011;33618;49.972;8.242;2024-01-30T11:04:56;26.38;;;14.45;;
47856;SDS011;33618;49.972;8.242;2024-01-30T11:07:26;24.25;;;13.95;;
47856;SDS011;33618;49.972;8.242;2024-01-30T11:09:54;24.27;;;14.20;;
47856;SDS011;33618;49.972;8.242;2024-01-30T11:15:06;21.30;;;12.20;;
47856;SDS011;33618;49.972;8.242;2024-01-30T11:18:07;22.95;;;13.07;;
47856;SDS011;33618;49.972;8.242;2024-01-30T11:20:29;19.45;;;12.15;;
47856;SDS011;33618;49.972;8.242;2024-01-30T11:23:01;22.27;;;12.48;;
47856;SDS011;33618;49.972;8.242;2024-01-30T11:25:33;21.40;;;13.15;;
47856;SDS011;33618;49.972;8.242;2024-01-30T11:28:00;23.05;;;18.60;;
47856;SDS011;33618;49.972;8.242;2024-01-30T11:30:30;22.70;;;12.75;;
47856;SDS011;33618;49.972;8.242;2024-01-30T11:33:01;20.77;;;13.15;;
47856;SDS011;33618;49.972;8.242;2024-01-30T11:35:36;25.60;;;19.17;;
47856;SDS011;33618;49.972;8.242;2024-01-30T11:38:06;23.88;;;13.52;;
47856;SDS011;33618;49.972;8.242;2024-01-30T11:40:34;24.58;;;19.15;;
47856;SDS011;33618;49.972;8.242;2024-01-30T11:43:02;20.98;;;13.80;;
47856;SDS011;33618;49.972;8.242;2024-01-30T11:45:31;23.98;;;14.23;;
47856;SDS011;33618;49.972;8.242;2024-01-30T11:47:58;24.48;;;15.52;;
47856;SDS011;33618;49.972;8.242;2024-01-30T11:50:33;23.75;;;14.15;;
47856;SDS011;33618;49.972;8.242;2024-01-30T11:53:01;29.15;;;14.98;;
47856;SDS011;33618;49.972;8.242;2024-01-30T11:55:29;24.27;;;15.25;;
47856;SDS011;33618;49.972;8.242;2024-01-30T11:58:00;28.27;;;20.33;;
47856;SDS011;33618;49.972;8.242;2024-01-30T12:00:28;19.83;;;12.50;;
47856;SDS011;33618;49.972;8.242;2024-01-30T12:02:57;22.88;;;13.00;;
47856;SDS011;33618;49.972;8.242;2024-01-30T12:05:30;27.90;;;20.02;;
47856;SDS011;33618;49.972;8.242;2024-01-30T12:07:58;25.45;;;14.48;;
47856;SDS011;33618;49.972;8.242;2024-01-30T12:10:27;21.75;;;14.15;;
47856;SDS011;33618;49.972;8.242;2024-01-30T12:12:55;25.85;;;13.80;;
47856;SDS011;33618;49.972;8.242;2024-01-30T12:15:22;22.30;;;13.40;;
47856;SDS011;33618;49.972;8.242;2024-01-30T12:17:50;23.73;;;19.25;;
47856;SDS011;33618;49.972;8.242;2024-01-30T12:20:17;22.15;;;17.25;;
47856;SDS011;33618;49.972;8.242;2024-01-30T12:22:49;20.88;;;13.48;;
47856;SDS011;33618;49.972;8.242;2024-01-30T12:25:18;22.23;;;17.70;;
47856;SDS011;33618;49.972;8.242;2024-01-30T12:27:46;21.75;;;17.13;;
47856;SDS011;33618;49.972;8.242;2024-01-30T12:30:17;22.52;;;16.58;;
47856;SDS011;33618;49.972;8.242;2024-01-30T12:32:45;21.83;;;13.45;;
47856;SDS011;33618;49.972;8.242;2024-01-30T12:35:19;21.10;;;16.20;;
47856;SDS011;33618;49.972;8.242;2024-01-30T12:37:48;19.35;;;16.98;;
47856;SDS011;33618;49.972;8.242;2024-01-30T12:40:16;23.75;;;18.50;;
47856;SDS011;33618;49.972;8.242;2024-01-30T12:42:46;21.52;;;17.92;;
47856;SDS011;33618;49.972;8.242;2024-01-30T12:45:17;21.83;;;17.95;;
47856;SDS011;33618;49.972;8.242;2024-01-30T12:47:49;25.58;;;18.67;;
47856;SDS011;33618;49.972;8.242;2024-01-30T12:50:17;22.88;;;18.50;;
47856;SDS011;33618;49.972;8.242;2024-01-30T12:52:44;22.60;;;18.95;;
47856;SDS011;33618;49.972;8.242;2024-01-30T12:55:15;21.55;;;18.83;;
47856;SDS011;33618;49.972;8.242;2024-01-30T12:57:43;24.48;;;19.65;;
47856;SDS011;33618;49.972;8.242;2024-01-30T13:00:10;20.75;;;18.10;;
47856;SDS011;33618;49.972;8.242;2024-01-30T13:02:38;21.02;;;17.90;;
47856;SDS011;33618;49.972;8.242;2024-01-30T13:05:05;25.15;;;17.48;;
47856;SDS011;33618;49.972;8.242;2024-01-30T13:07:34;20.55;;;16.98;;
47856;SDS011;33618;49.972;8.242;2024-01-30T13:10:02;20.52;;;17.85;;
47856;SDS011;33618;49.972;8.242;2024-01-30T13:12:31;24.55;;;18.08;;
47856;SDS011;33618;49.972;8.242;2024-01-30T13:14:59;23.13;;;17.70;;
47856;SDS011;33618;49.972;8.242;2024-01-30T13:17:27;23.85;;;18.60;;
47856;SDS011;33618;49.972;8.242;2024-01-30T13:19:55;26.00;;;16.17;;
47856;SDS011;33618;49.972;8.242;2024-01-30T13:22:33;24.02;;;15.60;;
47856;SDS011;33618;49.972;8.242;2024-01-30T13:25:00;27.30;;;19.13;;
47856;SDS011;33618;49.972;8.242;2024-01-30T13:27:27;27.02;;;18.25;;
47856;SDS011;33618;49.972;8.242;2024-01-30T13:29:54;26.63;;;18.30;;
47856;SDS011;33618;49.972;8.242;2024-01-30T13:32:22;22.50;;;15.25;;
47856;SDS011;33618;49.972;8.242;2024-01-30T13:34:49;18.35;;;14.68;;
47856;SDS011;33618;49.972;8.242;2024-01-30T13:37:16;17.33;;;13.88;;
47856;SDS011;33618;49.972;8.242;2024-01-30T13:39:44;16.75;;;13.98;;
47856;SDS011;33618;49.972;8.242;2024-01-30T13:42:11;16.17;;;13.68;;
47856;SDS011;33618;49.972;8.242;2024-01-30T13:44:38;17.88;;;13.27;;
47856;SDS011;33618;49.972;8.242;2024-01-30T13:47:06;16.23;;;14.07;;
47856;SDS011;33618;49.972;8.242;2024-01-30T13:49:34;15.38;;;13.63;;
47856;SDS011;33618;49.972;8.242;2024-01-30T13:52:01;16.92;;;14.95;;
47856;SDS011;33618;49.972;8.242;2024-01-30T13:54:29;17.13;;;14.65;;
47856;SDS011;33618;49.972;8.242;2024-01-30T13:56:57;16.75;;;14.82;;
47856;SDS011;33618;49.972;8.242;2024-01-30T13:59:24;17.83;;;15.30;;
47856;SDS011;33618;49.972;8.242;2024-01-30T14:01:52;16.45;;;14.65;;
47856;SDS011;33618;49.972;8.242;2024-01-30T14:04:19;16.73;;;14.50;;
47856;SDS011;33618;49.972;8.242;2024-01-30T14:06:47;22.08;;;15.80;;
47856;SDS011;33618;49.972;8.242;2024-01-30T14:09:26;17.65;;;15.38;;
47856;SDS011;33618;49.972;8.242;2024-01-30T14:11:53;19.05;;;16.30;;
47856;SDS011;33618;49.972;8.242;2024-01-30T14:14:20;18.70;;;15.40;;
47856;SDS011;33618;49.972;8.242;2024-01-30T14:16:47;19.77;;;15.95;;
47856;SDS011;33618;49.972;8.242;2024-01-30T14:19:14;20.13;;;15.05;;
47856;SDS011;33618;49.972;8.242;2024-01-30T14:21:42;20.85;;;16.58;;
47856;SDS011;33618;49.972;8.242;2024-01-30T14:24:10;19.83;;;16.55;;
47856;SDS011;33618;49.972;8.242;2024-01-30T14:26:37;18.98;;;16.65;;
47856;SDS011;33618;49.972;8.242;2024-01-30T14:29:04;22.30;;;16.35;;
47856;SDS011;33618;49.972;8.242;2024-01-30T14:31:31;19.98;;;13.35;;
47856;SDS011;33618;49.972;8.242;2024-01-30T14:33:59;26.48;;;16.55;;
47856;SDS011;33618;49.972;8.242;2024-01-30T14:36:26;20.83;;;17.30;;